sensor_id;sensor_type;location;lat;lon;timestamp;temperature;humidity
37289;DHT22;23174;49.462;11.000;2023-03-01T00:01:59;5.00;99.90
37289;DHT22;23174;49.462;11.000;2023-03-01T00:04:00;5.00;99.90
37289;DHT22;23174;49.462;11.000;2023-03-01T00:06:01;5.10;99.90
37289;DHT22;23174;49.462;11.000;2023-03-01T00:08:02;5.00;99.90
37289;DHT22;23174;49.462;11.000;2023-03-01T00:10:03;5.00;99.90
37289;DHT22;23174;49.462;11.000;2023-03-01T00:12:04;5.00;99.90
37289;DHT22;23174;49.462;11.000;2023-03-01T00:14:05;5.10;99.90
37289;DHT22;23174;49.462;11.000;2023-03-01T00:16:09;5.10;99.90
37289;DHT22;23174;49.462;11.000;2023-03-01T00:18:11;5.10;99.90
37289;DHT22;23174;49.462;11.000;2023-03-01T00:20:11;5.10;99.90
37289;DHT22;23174;49.462;11.000;2023-03-01T00:22:12;5.10;99.90
37289;DHT22;23174;49.462;11.000;2023-03-01T00:24:12;5.10;99.90
37289;DHT22;23174;49.462;11.000;2023-03-01T00:26:14;5.10;99.90
37289;DHT22;23174;49.462;11.000;2023-03-01T00:28:15;5.10;99.90
37289;DHT22;23174;49.462;11.000;2023-03-01T00:30:16;5.10;99.90
37289;DHT22;23174;49.462;11.000;2023-03-01T00:32:17;5.10;99.90
37289;DHT22;23174;49.462;11.000;2023-03-01T00:34:17;5.00;99.90
37289;DHT22;23174;49.462;11.000;2023-03-01T00:36:18;5.00;99.90
37289;DHT22;23174;49.462;11.000;2023-03-01T00:38:19;5.00;99.90
37289;DHT22;23174;49.462;11.000;2023-03-01T00:40:19;5.00;99.90
37289;DHT22;23174;49.462;11.000;2023-03-01T00:42:20;5.00;99.90
37289;DHT22;23174;49.462;11.000;2023-03-01T00:44:22;5.00;99.90
37289;DHT22;23174;49.462;11.000;2023-03-01T00:46:25;5.10;99.90
37289;DHT22;23174;49.462;11.000;2023-03-01T00:48:26;5.10;99.90
37289;DHT22;23174;49.462;11.000;2023-03-01T00:50:27;5.00;99.90
37289;DHT22;23174;49.462;11.000;2023-03-01T00:52:28;5.10;99.90
37289;DHT22;23174;49.462;11.000;2023-03-01T00:54:28;5.10;99.90
37289;DHT22;23174;49.462;11.000;2023-03-01T00:56:30;5.00;99.90
37289;DHT22;23174;49.462;11.000;2023-03-01T00:58:30;4.90;99.90
37289;DHT22;23174;49.462;11.000;2023-03-01T01:00:31;4.90;99.90
37289;DHT22;23174;49.462;11.000;2023-03-01T01:02:33;4.90;99.90
37289;DHT22;23174;49.462;11.000;2023-03-01T01:04:33;5.00;99.90
37289;DHT22;23174;49.462;11.000;2023-03-01T01:06:42;4.90;99.90
37289;DHT22;23174;49.462;11.000;2023-03-01T01:08:43;4.90;99.90
37289;DHT22;23174;49.462;11.000;2023-03-01T01:10:45;4.90;99.90
37289;DHT22;23174;49.462;11.000;2023-03-01T01:12:46;4.90;99.90
37289;DHT22;23174;49.462;11.000;2023-03-01T01:14:49;4.90;99.90
37289;DHT22;23174;49.462;11.000;2023-03-01T01:16:50;5.00;99.90
37289;DHT22;23174;49.462;11.000;2023-03-01T01:18:51;5.00;99.90
37289;DHT22;23174;49.462;11.000;2023-03-01T01:20:52;5.00;99.90
37289;DHT22;23174;49.462;11.000;2023-03-01T01:22:52;5.00;99.90
37289;DHT22;23174;49.462;11.000;2023-03-01T01:24:53;5.00;99.90
37289;DHT22;23174;49.462;11.000;2023-03-01T01:26:53;5.00;99.90
37289;DHT22;23174;49.462;11.000;2023-03-01T01:28:54;5.00;99.90
37289;DHT22;23174;49.462;11.000;2023-03-01T01:30:54;5.00;99.90
37289;DHT22;23174;49.462;11.000;2023-03-01T01:32:55;5.00;99.90
37289;DHT22;23174;49.462;11.000;2023-03-01T01:34:55;5.00;99.90
37289;DHT22;23174;49.462;11.000;2023-03-01T01:36:56;5.10;99.90
37289;DHT22;23174;49.462;11.000;2023-03-01T01:38:57;5.10;99.90
37289;DHT22;23174;49.462;11.000;2023-03-01T01:40:58;5.10;99.90
37289;DHT22;23174;49.462;11.000;2023-03-01T01:42:59;5.10;99.90
37289;DHT22;23174;49.462;11.000;2023-03-01T01:45:32;5.10;99.90
37289;DHT22;23174;49.462;11.000;2023-03-01T01:47:35;5.10;99.90
37289;DHT22;23174;49.462;11.000;2023-03-01T01:51:44;5.10;99.90
37289;DHT22;23174;49.462;11.000;2023-03-01T01:53:49;5.00;99.90
37289;DHT22;23174;49.462;11.000;2023-03-01T01:55:57;5.00;99.90
37289;DHT22;23174;49.462;11.000;2023-03-01T01:58:02;5.00;99.90
37289;DHT22;23174;49.462;11.000;2023-03-01T02:00:10;4.90;99.90
37289;DHT22;23174;49.462;11.000;2023-03-01T02:02:11;4.90;99.90
37289;DHT22;23174;49.462;11.000;2023-03-01T02:04:13;4.90;99.90
37289;DHT22;23174;49.462;11.000;2023-03-01T02:06:29;4.90;99.90
37289;DHT22;23174;49.462;11.000;2023-03-01T02:08:35;4.90;99.90
37289;DHT22;23174;49.462;11.000;2023-03-01T02:10:37;4.90;99.90
37289;DHT22;23174;49.462;11.000;2023-03-01T02:12:39;4.80;99.90
37289;DHT22;23174;49.462;11.000;2023-03-01T02:14:40;4.80;99.90
37289;DHT22;23174;49.462;11.000;2023-03-01T02:16:41;4.80;99.90
37289;DHT22;23174;49.462;11.000;2023-03-01T02:18:43;4.90;99.90
37289;DHT22;23174;49.462;11.000;2023-03-01T02:23:22;4.90;99.90
37289;DHT22;23174;49.462;11.000;2023-03-01T02:27:50;5.00;99.90
37289;DHT22;23174;49.462;11.000;2023-03-01T02:29:52;5.00;99.90
37289;DHT22;23174;49.462;11.000;2023-03-01T02:31:54;5.00;99.90
37289;DHT22;23174;49.462;11.000;2023-03-01T02:33:57;5.00;99.90
37289;DHT22;23174;49.462;11.000;2023-03-01T02:36:00;5.00;99.90
37289;DHT22;23174;49.462;11.000;2023-03-01T02:38:02;5.00;99.90
37289;DHT22;23174;49.462;11.000;2023-03-01T02:40:08;5.00;99.90
37289;DHT22;23174;49.462;11.000;2023-03-01T02:42:14;4.90;99.90
37289;DHT22;23174;49.462;11.000;2023-03-01T02:44:17;5.00;99.90
37289;DHT22;23174;49.462;11.000;2023-03-01T02:46:21;5.00;99.90
37289;DHT22;23174;49.462;11.000;2023-03-01T02:48:22;4.90;99.90
37289;DHT22;23174;49.462;11.000;2023-03-01T02:57:03;4.80;99.90
37289;DHT22;23174;49.462;11.000;2023-03-01T02:59:04;4.80;99.90
37289;DHT22;23174;49.462;11.000;2023-03-01T03:01:05;4.80;99.90
37289;DHT22;23174;49.462;11.000;2023-03-01T03:03:06;4.80;99.90
37289;DHT22;23174;49.462;11.000;2023-03-01T03:05:13;4.80;99.90
37289;DHT22;23174;49.462;11.000;2023-03-01T03:07:14;4.80;99.90
37289;DHT22;23174;49.462;11.000;2023-03-01T03:09:16;4.80;99.90
37289;DHT22;23174;49.462;11.000;2023-03-01T03:11:17;4.80;99.90
37289;DHT22;23174;49.462;11.000;2023-03-01T03:13:17;4.80;99.90
37289;DHT22;23174;49.462;11.000;2023-03-01T03:15:20;4.90;99.90
37289;DHT22;23174;49.462;11.000;2023-03-01T03:17:21;4.90;99.90
37289;DHT22;23174;49.462;11.000;2023-03-01T03:19:21;4.90;99.90
37289;DHT22;23174;49.462;11.000;2023-03-01T03:21:22;4.90;99.90
37289;DHT22;23174;49.462;11.000;2023-03-01T03:23:23;4.90;99.90
37289;DHT22;23174;49.462;11.000;2023-03-01T03:25:25;4.90;99.90
37289;DHT22;23174;49.462;11.000;2023-03-01T03:27:27;4.90;99.90
37289;DHT22;23174;49.462;11.000;2023-03-01T03:29:27;4.80;99.90
37289;DHT22;23174;49.462;11.000;2023-03-01T03:31:28;4.90;99.90
37289;DHT22;23174;49.462;11.000;2023-03-01T03:33:30;4.80;99.90
37289;DHT22;23174;49.462;11.000;2023-03-01T03:35:39;4.80;99.90
37289;DHT22;23174;49.462;11.000;2023-03-01T03:37:40;4.80;99.90
37289;DHT22;23174;49.462;11.000;2023-03-01T03:40:00;4.80;99.90
37289;DHT22;23174;49.462;11.000;2023-03-01T03:42:01;4.70;99.90
37289;DHT22;23174;49.462;11.000;2023-03-01T03:44:02;4.80;99.90
37289;DHT22;23174;49.462;11.000;2023-03-01T03:46:03;4.70;99.90
37289;DHT22;23174;49.462;11.000;2023-03-01T03:48:08;4.70;99.90
37289;DHT22;23174;49.462;11.000;2023-03-01T03:50:11;4.70;99.90
37289;DHT22;23174;49.462;11.000;2023-03-01T03:52:12;4.70;99.90
37289;DHT22;23174;49.462;11.000;2023-03-01T03:54:13;4.60;99.90
37289;DHT22;23174;49.462;11.000;2023-03-01T03:56:14;4.60;99.90
37289;DHT22;23174;49.462;11.000;2023-03-01T03:58:15;4.60;99.90
37289;DHT22;23174;49.462;11.000;2023-03-01T04:00:19;4.60;99.90
37289;DHT22;23174;49.462;11.000;2023-03-01T04:02:20;4.50;99.90
37289;DHT22;23174;49.462;11.000;2023-03-01T04:04:22;4.50;99.90
37289;DHT22;23174;49.462;11.000;2023-03-01T04:06:22;4.60;99.90
37289;DHT22;23174;49.462;11.000;2023-03-01T04:08:23;4.60;99.90
37289;DHT22;23174;49.462;11.000;2023-03-01T04:10:24;4.50;99.90
37289;DHT22;23174;49.462;11.000;2023-03-01T04:12:24;4.50;99.90
37289;DHT22;23174;49.462;11.000;2023-03-01T04:14:25;4.50;99.90
37289;DHT22;23174;49.462;11.000;2023-03-01T04:16:26;4.60;99.90
37289;DHT22;23174;49.462;11.000;2023-03-01T04:18:26;4.60;99.90
37289;DHT22;23174;49.462;11.000;2023-03-01T04:20:29;4.60;99.90
37289;DHT22;23174;49.462;11.000;2023-03-01T04:22:30;4.60;99.90
37289;DHT22;23174;49.462;11.000;2023-03-01T04:24:32;4.60;99.90
37289;DHT22;23174;49.462;11.000;2023-03-01T04:26:33;4.50;99.90
37289;DHT22;23174;49.462;11.000;2023-03-01T04:30:37;4.50;99.90
37289;DHT22;23174;49.462;11.000;2023-03-01T04:32:38;4.50;99.90
37289;DHT22;23174;49.462;11.000;2023-03-01T04:34:39;4.50;99.90
37289;DHT22;23174;49.462;11.000;2023-03-01T04:36:39;4.50;99.90
37289;DHT22;23174;49.462;11.000;2023-03-01T04:38:40;4.60;99.90
37289;DHT22;23174;49.462;11.000;2023-03-01T04:40:41;4.50;99.90
37289;DHT22;23174;49.462;11.000;2023-03-01T04:42:43;4.50;99.90
37289;DHT22;23174;49.462;11.000;2023-03-01T04:44:44;4.60;99.90
37289;DHT22;23174;49.462;11.000;2023-03-01T04:46:46;4.60;99.90
37289;DHT22;23174;49.462;11.000;2023-03-01T04:48:48;4.50;99.90
37289;DHT22;23174;49.462;11.000;2023-03-01T04:50:49;4.50;99.90
37289;DHT22;23174;49.462;11.000;2023-03-01T04:52:50;4.50;99.90
37289;DHT22;23174;49.462;11.000;2023-03-01T04:54:50;4.50;99.90
37289;DHT22;23174;49.462;11.000;2023-03-01T04:56:51;4.40;99.90
37289;DHT22;23174;49.462;11.000;2023-03-01T04:58:53;4.40;99.90
37289;DHT22;23174;49.462;11.000;2023-03-01T05:00:54;4.40;99.90
37289;DHT22;23174;49.462;11.000;2023-03-01T05:02:57;4.30;99.90
37289;DHT22;23174;49.462;11.000;2023-03-01T05:04:58;4.30;99.90
37289;DHT22;23174;49.462;11.000;2023-03-01T05:06:58;4.30;99.90
37289;DHT22;23174;49.462;11.000;2023-03-01T05:08:59;4.40;99.90
37289;DHT22;23174;49.462;11.000;2023-03-01T05:11:00;4.40;99.90
37289;DHT22;23174;49.462;11.000;2023-03-01T05:13:01;4.40;99.90
37289;DHT22;23174;49.462;11.000;2023-03-01T05:15:01;4.50;99.90
37289;DHT22;23174;49.462;11.000;2023-03-01T05:17:07;4.40;99.90
37289;DHT22;23174;49.462;11.000;2023-03-01T05:19:08;4.40;99.90
37289;DHT22;23174;49.462;11.000;2023-03-01T05:21:16;4.40;99.90
37289;DHT22;23174;49.462;11.000;2023-03-01T05:23:16;4.40;99.90
37289;DHT22;23174;49.462;11.000;2023-03-01T05:25:17;4.40;99.90
37289;DHT22;23174;49.462;11.000;2023-03-01T05:27:18;4.40;99.90
37289;DHT22;23174;49.462;11.000;2023-03-01T05:29:23;4.50;99.90
37289;DHT22;23174;49.462;11.000;2023-03-01T05:31:27;4.40;99.90
37289;DHT22;23174;49.462;11.000;2023-03-01T05:33:28;4.50;99.90
37289;DHT22;23174;49.462;11.000;2023-03-01T05:35:28;4.50;99.90
37289;DHT22;23174;49.462;11.000;2023-03-01T05:37:29;4.60;99.90
37289;DHT22;23174;49.462;11.000;2023-03-01T05:39:30;4.50;99.90
37289;DHT22;23174;49.462;11.000;2023-03-01T05:41:31;4.50;99.90
37289;DHT22;23174;49.462;11.000;2023-03-01T05:43:32;4.50;99.90
37289;DHT22;23174;49.462;11.000;2023-03-01T05:45:37;4.50;99.90
37289;DHT22;23174;49.462;11.000;2023-03-01T05:47:41;4.50;99.90
37289;DHT22;23174;49.462;11.000;2023-03-01T05:49:44;4.50;99.90
37289;DHT22;23174;49.462;11.000;2023-03-01T05:51:50;4.60;99.90
37289;DHT22;23174;49.462;11.000;2023-03-01T05:53:51;4.50;99.90
37289;DHT22;23174;49.462;11.000;2023-03-01T05:55:52;4.50;99.90
37289;DHT22;23174;49.462;11.000;2023-03-01T05:57:53;4.40;99.90
37289;DHT22;23174;49.462;11.000;2023-03-01T05:59:53;4.30;99.90
37289;DHT22;23174;49.462;11.000;2023-03-01T06:01:54;4.20;99.90
37289;DHT22;23174;49.462;11.000;2023-03-01T06:03:55;4.30;99.90
37289;DHT22;23174;49.462;11.000;2023-03-01T06:05:57;4.40;99.90
37289;DHT22;23174;49.462;11.000;2023-03-01T06:07:59;4.50;99.90
37289;DHT22;23174;49.462;11.000;2023-03-01T06:10:00;4.50;99.90
37289;DHT22;23174;49.462;11.000;2023-03-01T06:12:01;4.50;99.90
37289;DHT22;23174;49.462;11.000;2023-03-01T06:14:02;4.60;99.90
37289;DHT22;23174;49.462;11.000;2023-03-01T06:16:06;4.70;99.90
37289;DHT22;23174;49.462;11.000;2023-03-01T06:18:08;4.60;99.90
37289;DHT22;23174;49.462;11.000;2023-03-01T06:20:15;4.60;99.90
37289;DHT22;23174;49.462;11.000;2023-03-01T06:22:16;4.60;99.90
37289;DHT22;23174;49.462;11.000;2023-03-01T06:24:17;4.70;99.90
37289;DHT22;23174;49.462;11.000;2023-03-01T06:26:17;4.70;99.90
37289;DHT22;23174;49.462;11.000;2023-03-01T06:28:18;4.60;99.90
37289;DHT22;23174;49.462;11.000;2023-03-01T06:30:21;4.60;99.90
37289;DHT22;23174;49.462;11.000;2023-03-01T06:32:22;4.60;99.90
37289;DHT22;23174;49.462;11.000;2023-03-01T06:34:22;4.70;99.90
37289;DHT22;23174;49.462;11.000;2023-03-01T06:36:23;4.80;99.90
37289;DHT22;23174;49.462;11.000;2023-03-01T06:38:24;4.80;99.90
37289;DHT22;23174;49.462;11.000;2023-03-01T06:40:25;4.80;99.90
37289;DHT22;23174;49.462;11.000;2023-03-01T06:42:25;4.80;99.90
37289;DHT22;23174;49.462;11.000;2023-03-01T06:44:26;4.80;99.90
37289;DHT22;23174;49.462;11.000;2023-03-01T06:46:27;4.80;99.90
37289;DHT22;23174;49.462;11.000;2023-03-01T06:48:27;4.80;99.90
37289;DHT22;23174;49.462;11.000;2023-03-01T06:50:28;4.90;99.90
37289;DHT22;23174;49.462;11.000;2023-03-01T06:52:29;4.90;99.90
37289;DHT22;23174;49.462;11.000;2023-03-01T06:54:29;4.90;99.90
37289;DHT22;23174;49.462;11.000;2023-03-01T06:56:31;4.90;99.90
37289;DHT22;23174;49.462;11.000;2023-03-01T06:58:32;4.90;99.90
37289;DHT22;23174;49.462;11.000;2023-03-01T07:00:32;5.00;99.90
37289;DHT22;23174;49.462;11.000;2023-03-01T07:02:33;5.00;99.90
37289;DHT22;23174;49.462;11.000;2023-03-01T07:04:34;5.00;99.90
37289;DHT22;23174;49.462;11.000;2023-03-01T07:06:34;5.00;99.90
37289;DHT22;23174;49.462;11.000;2023-03-01T07:08:35;5.00;99.90
37289;DHT22;23174;49.462;11.000;2023-03-01T07:10:35;4.70;99.90
37289;DHT22;23174;49.462;11.000;2023-03-01T07:12:36;4.60;99.90
37289;DHT22;23174;49.462;11.000;2023-03-01T07:14:37;4.80;99.90
37289;DHT22;23174;49.462;11.000;2023-03-01T07:16:37;4.80;99.90
37289;DHT22;23174;49.462;11.000;2023-03-01T07:18:38;4.80;99.90
37289;DHT22;23174;49.462;11.000;2023-03-01T07:20:38;4.90;99.90
37289;DHT22;23174;49.462;11.000;2023-03-01T07:22:41;4.90;99.90
37289;DHT22;23174;49.462;11.000;2023-03-01T07:24:43;4.90;99.90
37289;DHT22;23174;49.462;11.000;2023-03-01T07:26:43;4.90;99.90
37289;DHT22;23174;49.462;11.000;2023-03-01T07:28:44;5.00;99.90
37289;DHT22;23174;49.462;11.000;2023-03-01T07:30:45;4.90;99.90
37289;DHT22;23174;49.462;11.000;2023-03-01T07:32:45;5.00;99.90
37289;DHT22;23174;49.462;11.000;2023-03-01T07:34:46;5.00;99.90
37289;DHT22;23174;49.462;11.000;2023-03-01T07:36:46;5.00;99.90
37289;DHT22;23174;49.462;11.000;2023-03-01T07:38:47;5.00;99.90
37289;DHT22;23174;49.462;11.000;2023-03-01T07:40:48;5.10;99.90
37289;DHT22;23174;49.462;11.000;2023-03-01T07:42:49;5.10;99.90
37289;DHT22;23174;49.462;11.000;2023-03-01T07:44:49;5.10;99.90
37289;DHT22;23174;49.462;11.000;2023-03-01T07:46:50;5.20;99.90
37289;DHT22;23174;49.462;11.000;2023-03-01T07:48:52;5.20;99.90
37289;DHT22;23174;49.462;11.000;2023-03-01T07:50:53;5.20;99.90
37289;DHT22;23174;49.462;11.000;2023-03-01T07:52:54;5.20;99.90
37289;DHT22;23174;49.462;11.000;2023-03-01T07:54:54;5.30;99.90
37289;DHT22;23174;49.462;11.000;2023-03-01T07:56:56;5.40;99.90
37289;DHT22;23174;49.462;11.000;2023-03-01T07:58:59;5.40;99.90
37289;DHT22;23174;49.462;11.000;2023-03-01T08:01:04;5.50;99.90
37289;DHT22;23174;49.462;11.000;2023-03-01T08:03:05;5.50;99.90
37289;DHT22;23174;49.462;11.000;2023-03-01T08:05:06;5.60;99.90
37289;DHT22;23174;49.462;11.000;2023-03-01T08:07:07;5.60;99.90
37289;DHT22;23174;49.462;11.000;2023-03-01T08:09:07;5.60;99.90
37289;DHT22;23174;49.462;11.000;2023-03-01T08:11:11;5.70;99.90
37289;DHT22;23174;49.462;11.000;2023-03-01T08:13:12;5.70;99.90
37289;DHT22;23174;49.462;11.000;2023-03-01T08:15:12;5.80;99.90
37289;DHT22;23174;49.462;11.000;2023-03-01T08:17:14;5.80;99.90
37289;DHT22;23174;49.462;11.000;2023-03-01T08:19:14;5.90;99.90
37289;DHT22;23174;49.462;11.000;2023-03-01T08:21:17;6.00;99.90
37289;DHT22;23174;49.462;11.000;2023-03-01T08:23:17;6.00;99.90
37289;DHT22;23174;49.462;11.000;2023-03-01T08:25:18;6.00;99.90
37289;DHT22;23174;49.462;11.000;2023-03-01T08:27:19;6.10;99.90
37289;DHT22;23174;49.462;11.000;2023-03-01T08:29:19;6.10;99.40
37289;DHT22;23174;49.462;11.000;2023-03-01T08:31:22;6.10;99.30
37289;DHT22;23174;49.462;11.000;2023-03-01T08:33:23;6.20;99.30
37289;DHT22;23174;49.462;11.000;2023-03-01T08:35:24;6.30;99.30
37289;DHT22;23174;49.462;11.000;2023-03-01T08:37:25;6.30;99.10
37289;DHT22;23174;49.462;11.000;2023-03-01T08:39:25;6.30;99.20
37289;DHT22;23174;49.462;11.000;2023-03-01T08:41:26;6.40;99.60
37289;DHT22;23174;49.462;11.000;2023-03-01T08:43:27;6.40;98.80
37289;DHT22;23174;49.462;11.000;2023-03-01T08:45:27;6.40;98.90
37289;DHT22;23174;49.462;11.000;2023-03-01T08:47:28;6.40;98.80
37289;DHT22;23174;49.462;11.000;2023-03-01T08:49:28;6.50;98.70
37289;DHT22;23174;49.462;11.000;2023-03-01T08:51:29;6.40;98.50
37289;DHT22;23174;49.462;11.000;2023-03-01T08:53:32;6.40;98.60
37289;DHT22;23174;49.462;11.000;2023-03-01T08:55:32;6.40;98.70
37289;DHT22;23174;49.462;11.000;2023-03-01T08:57:33;6.50;98.90
37289;DHT22;23174;49.462;11.000;2023-03-01T08:59:33;6.50;98.20
37289;DHT22;23174;49.462;11.000;2023-03-01T09:01:37;6.50;98.30
37289;DHT22;23174;49.462;11.000;2023-03-01T09:03:38;6.60;98.20
37289;DHT22;23174;49.462;11.000;2023-03-01T09:05:39;6.70;98.00
37289;DHT22;23174;49.462;11.000;2023-03-01T09:07:39;6.60;97.90
37289;DHT22;23174;49.462;11.000;2023-03-01T09:09:40;6.70;97.80
37289;DHT22;23174;49.462;11.000;2023-03-01T09:11:40;6.70;98.30
37289;DHT22;23174;49.462;11.000;2023-03-01T09:13:41;6.70;97.90
37289;DHT22;23174;49.462;11.000;2023-03-01T09:15:42;6.80;97.70
37289;DHT22;23174;49.462;11.000;2023-03-01T09:17:42;6.90;97.80
37289;DHT22;23174;49.462;11.000;2023-03-01T09:19:43;6.90;97.20
37289;DHT22;23174;49.462;11.000;2023-03-01T09:21:43;6.90;97.70
37289;DHT22;23174;49.462;11.000;2023-03-01T09:23:52;7.00;97.60
37289;DHT22;23174;49.462;11.000;2023-03-01T09:25:53;7.00;97.30
37289;DHT22;23174;49.462;11.000;2023-03-01T09:27:54;7.00;97.10
37289;DHT22;23174;49.462;11.000;2023-03-01T09:29:55;7.10;97.30
37289;DHT22;23174;49.462;11.000;2023-03-01T09:31:56;7.10;97.10
37289;DHT22;23174;49.462;11.000;2023-03-01T09:33:57;7.10;96.70
37289;DHT22;23174;49.462;11.000;2023-03-01T09:36:04;7.10;96.70
37289;DHT22;23174;49.462;11.000;2023-03-01T09:38:05;7.10;97.20
37289;DHT22;23174;49.462;11.000;2023-03-01T09:40:07;7.20;96.70
37289;DHT22;23174;49.462;11.000;2023-03-01T09:42:12;7.20;96.50
37289;DHT22;23174;49.462;11.000;2023-03-01T09:46:53;7.30;96.90
37289;DHT22;23174;49.462;11.000;2023-03-01T09:49:03;7.30;97.30
37289;DHT22;23174;49.462;11.000;2023-03-01T09:51:12;7.30;96.50
37289;DHT22;23174;49.462;11.000;2023-03-01T09:53:26;7.40;96.20
37289;DHT22;23174;49.462;11.000;2023-03-01T09:55:38;7.40;96.40
37289;DHT22;23174;49.462;11.000;2023-03-01T09:57:46;7.40;96.50
37289;DHT22;23174;49.462;11.000;2023-03-01T09:59:51;7.40;95.90
37289;DHT22;23174;49.462;11.000;2023-03-01T10:04:47;7.50;96.20
37289;DHT22;23174;49.462;11.000;2023-03-01T10:06:58;7.60;96.10
37289;DHT22;23174;49.462;11.000;2023-03-01T10:09:12;7.70;96.30
37289;DHT22;23174;49.462;11.000;2023-03-01T10:11:22;7.70;95.80
37289;DHT22;23174;49.462;11.000;2023-03-01T10:15:55;7.70;95.80
37289;DHT22;23174;49.462;11.000;2023-03-01T10:18:02;7.70;96.40
37289;DHT22;23174;49.462;11.000;2023-03-01T10:20:28;7.80;95.30
37289;DHT22;23174;49.462;11.000;2023-03-01T10:22:31;8.00;96.20
37289;DHT22;23174;49.462;11.000;2023-03-01T10:24:35;7.90;95.00
37289;DHT22;23174;49.462;11.000;2023-03-01T10:26:56;7.80;95.00
37289;DHT22;23174;49.462;11.000;2023-03-01T10:29:05;7.90;95.40
37289;DHT22;23174;49.462;11.000;2023-03-01T10:31:13;7.90;94.70
37289;DHT22;23174;49.462;11.000;2023-03-01T10:33:22;7.90;95.00
37289;DHT22;23174;49.462;11.000;2023-03-01T10:35:26;7.90;94.70
37289;DHT22;23174;49.462;11.000;2023-03-01T10:37:27;7.90;95.20
37289;DHT22;23174;49.462;11.000;2023-03-01T10:39:28;8.00;94.70
37289;DHT22;23174;49.462;11.000;2023-03-01T10:41:29;8.10;94.90
37289;DHT22;23174;49.462;11.000;2023-03-01T10:43:44;8.20;94.50
37289;DHT22;23174;49.462;11.000;2023-03-01T10:45:45;8.20;94.80
37289;DHT22;23174;49.462;11.000;2023-03-01T10:47:45;8.30;94.30
37289;DHT22;23174;49.462;11.000;2023-03-01T10:51:55;8.30;94.40
37289;DHT22;23174;49.462;11.000;2023-03-01T10:53:56;8.30;94.40
37289;DHT22;23174;49.462;11.000;2023-03-01T10:56:14;8.30;94.30
37289;DHT22;23174;49.462;11.000;2023-03-01T10:58:20;8.30;94.50
37289;DHT22;23174;49.462;11.000;2023-03-01T11:00:26;8.30;94.30
37289;DHT22;23174;49.462;11.000;2023-03-01T11:02:30;8.30;94.10
37289;DHT22;23174;49.462;11.000;2023-03-01T11:04:33;8.30;94.50
37289;DHT22;23174;49.462;11.000;2023-03-01T11:06:34;8.40;94.50
37289;DHT22;23174;49.462;11.000;2023-03-01T11:08:44;8.40;94.10
37289;DHT22;23174;49.462;11.000;2023-03-01T11:10:45;8.50;94.00
37289;DHT22;23174;49.462;11.000;2023-03-01T11:12:45;8.50;93.90
37289;DHT22;23174;49.462;11.000;2023-03-01T11:14:53;8.60;93.90
37289;DHT22;23174;49.462;11.000;2023-03-01T11:17:05;8.60;93.90
37289;DHT22;23174;49.462;11.000;2023-03-01T11:19:14;8.80;94.50
37289;DHT22;23174;49.462;11.000;2023-03-01T11:21:15;8.80;93.60
37289;DHT22;23174;49.462;11.000;2023-03-01T11:23:16;8.80;93.90
37289;DHT22;23174;49.462;11.000;2023-03-01T11:25:20;9.00;94.80
37289;DHT22;23174;49.462;11.000;2023-03-01T11:27:31;8.90;94.00
37289;DHT22;23174;49.462;11.000;2023-03-01T11:29:37;8.90;93.40
37289;DHT22;23174;49.462;11.000;2023-03-01T11:31:40;9.00;93.50
37289;DHT22;23174;49.462;11.000;2023-03-01T11:38:27;9.10;93.10
37289;DHT22;23174;49.462;11.000;2023-03-01T11:40:43;9.10;94.20
37289;DHT22;23174;49.462;11.000;2023-03-01T11:45:24;9.20;93.10
37289;DHT22;23174;49.462;11.000;2023-03-01T11:54:05;9.30;92.70
37289;DHT22;23174;49.462;11.000;2023-03-01T11:56:38;9.30;92.30
37289;DHT22;23174;49.462;11.000;2023-03-01T12:08:30;9.50;92.40
37289;DHT22;23174;49.462;11.000;2023-03-01T12:10:57;9.50;92.40
37289;DHT22;23174;49.462;11.000;2023-03-01T12:16:02;9.60;92.80
37289;DHT22;23174;49.462;11.000;2023-03-01T12:18:37;9.70;92.60
37289;DHT22;23174;49.462;11.000;2023-03-01T12:20:58;9.80;92.40
37289;DHT22;23174;49.462;11.000;2023-03-01T12:25:38;9.90;92.30
37289;DHT22;23174;49.462;11.000;2023-03-01T12:49:28;10.10;92.60
37289;DHT22;23174;49.462;11.000;2023-03-01T12:51:31;10.10;92.00
37289;DHT22;23174;49.462;11.000;2023-03-01T12:53:44;10.20;91.90
37289;DHT22;23174;49.462;11.000;2023-03-01T12:55:46;10.20;92.30
37289;DHT22;23174;49.462;11.000;2023-03-01T12:57:56;10.20;92.30
37289;DHT22;23174;49.462;11.000;2023-03-01T13:00:17;10.30;92.40
37289;DHT22;23174;49.462;11.000;2023-03-01T13:02:32;10.30;92.40
37289;DHT22;23174;49.462;11.000;2023-03-01T13:11:27;10.40;92.30
37289;DHT22;23174;49.462;11.000;2023-03-01T13:13:29;10.50;92.70
37289;DHT22;23174;49.462;11.000;2023-03-01T13:15:32;10.50;92.20
37289;DHT22;23174;49.462;11.000;2023-03-01T13:17:41;10.50;92.20
37289;DHT22;23174;49.462;11.000;2023-03-01T13:19:56;10.50;92.80
37289;DHT22;23174;49.462;11.000;2023-03-01T13:21:58;10.50;92.40
37289;DHT22;23174;49.462;11.000;2023-03-01T13:23:59;10.60;92.80
37289;DHT22;23174;49.462;11.000;2023-03-01T13:26:04;10.50;92.80
37289;DHT22;23174;49.462;11.000;2023-03-01T13:32:36;10.60;92.60
37289;DHT22;23174;49.462;11.000;2023-03-01T13:34:42;10.70;92.80
37289;DHT22;23174;49.462;11.000;2023-03-01T13:36:47;10.70;92.70
37289;DHT22;23174;49.462;11.000;2023-03-01T13:40:58;10.70;93.00
37289;DHT22;23174;49.462;11.000;2023-03-01T13:43:29;10.80;92.90
37289;DHT22;23174;49.462;11.000;2023-03-01T13:47:36;10.70;93.00
37289;DHT22;23174;49.462;11.000;2023-03-01T13:51:57;10.80;93.20
37289;DHT22;23174;49.462;11.000;2023-03-01T13:53:59;10.70;93.00
37289;DHT22;23174;49.462;11.000;2023-03-01T13:56:12;10.80;93.10
37289;DHT22;23174;49.462;11.000;2023-03-01T13:58:23;10.80;93.40
37289;DHT22;23174;49.462;11.000;2023-03-01T14:00:35;10.80;93.20
37289;DHT22;23174;49.462;11.000;2023-03-01T14:02:36;10.80;93.30
37289;DHT22;23174;49.462;11.000;2023-03-01T14:04:36;10.80;93.10
37289;DHT22;23174;49.462;11.000;2023-03-01T14:06:37;10.80;93.10
37289;DHT22;23174;49.462;11.000;2023-03-01T14:08:38;10.90;93.80
37289;DHT22;23174;49.462;11.000;2023-03-01T14:10:52;10.90;93.30
37289;DHT22;23174;49.462;11.000;2023-03-01T14:15:39;10.90;93.40
37289;DHT22;23174;49.462;11.000;2023-03-01T14:20:22;10.90;93.40
37289;DHT22;23174;49.462;11.000;2023-03-01T14:22:29;10.90;93.50
37289;DHT22;23174;49.462;11.000;2023-03-01T14:24:31;10.90;93.60
37289;DHT22;23174;49.462;11.000;2023-03-01T14:26:35;10.90;93.60
37289;DHT22;23174;49.462;11.000;2023-03-01T14:28:37;10.90;93.50
37289;DHT22;23174;49.462;11.000;2023-03-01T14:30:44;10.90;93.50
37289;DHT22;23174;49.462;11.000;2023-03-01T14:32:56;11.00;93.90
37289;DHT22;23174;49.462;11.000;2023-03-01T14:34:57;11.00;93.90
37289;DHT22;23174;49.462;11.000;2023-03-01T14:37:10;11.10;94.30
37289;DHT22;23174;49.462;11.000;2023-03-01T14:39:19;11.10;94.10